sensor_id;sensor_type;location;lat;lon;timestamp;P1;durP1;ratioP1;P2;durP2;ratioP2
13764;SDS011;6953;48.810;9.204;2023-06-22T00:00:47;0.30;;;0.30;;
13764;SDS011;6953;48.810;9.204;2023-06-22T00:03:13;0.35;;;0.35;;
13764;SDS011;6953;48.810;9.204;2023-06-22T00:05:38;0.32;;;0.32;;
13764;SDS011;6953;48.810;9.204;2023-06-22T00:08:04;0.30;;;0.30;;
13764;SDS011;6953;48.810;9.204;2023-06-22T00:10:30;0.30;;;0.30;;
13764;SDS011;6953;48.810;9.204;2023-06-22T00:12:55;0.40;;;0.40;;
13764;SDS011;6953;48.810;9.204;2023-06-22T00:15:20;0.32;;;0.32;;
13764;SDS011;6953;48.810;9.204;2023-06-22T00:17:46;0.30;;;0.30;;
13764;SDS011;6953;48.810;9.204;2023-06-22T00:20:11;0.40;;;0.40;;
13764;SDS011;6953;48.810;9.204;2023-06-22T00:22:36;0.30;;;0.30;;
13764;SDS011;6953;48.810;9.204;2023-06-22T00:25:05;0.30;;;0.30;;
13764;SDS011;6953;48.810;9.204;2023-06-22T00:27:32;0.30;;;0.30;;
13764;SDS011;6953;48.810;9.204;2023-06-22T00:29:57;0.30;;;0.30;;
13764;SDS011;6953;48.810;9.204;2023-06-22T00:32:23;0.40;;;0.40;;
13764;SDS011;6953;48.810;9.204;2023-06-22T00:34:48;0.38;;;0.38;;
13764;SDS011;6953;48.810;9.204;2023-06-22T00:37:13;0.40;;;0.40;;
13764;SDS011;6953;48.810;9.204;2023-06-22T00:39:39;0.35;;;0.35;;
13764;SDS011;6953;48.810;9.204;2023-06-22T00:42:04;0.38;;;0.38;;
13764;SDS011;6953;48.810;9.204;2023-06-22T00:44:30;0.30;;;0.30;;
13764;SDS011;6953;48.810;9.204;2023-06-22T00:46:55;0.30;;;0.30;;
13764;SDS011;6953;48.810;9.204;2023-06-22T00:49:20;0.30;;;0.30;;
13764;SDS011;6953;48.810;9.204;2023-06-22T00:51:46;0.30;;;0.30;;
13764;SDS011;6953;48.810;9.204;2023-06-22T00:54:12;0.30;;;0.30;;
13764;SDS011;6953;48.810;9.204;2023-06-22T00:56:39;0.30;;;0.30;;
13764;SDS011;6953;48.810;9.204;2023-06-22T00:59:06;0.30;;;0.30;;
13764;SDS011;6953;48.810;9.204;2023-06-22T01:01:31;0.30;;;0.30;;
13764;SDS011;6953;48.810;9.204;2023-06-22T01:03:59;0.30;;;0.30;;
13764;SDS011;6953;48.810;9.204;2023-06-22T01:06:29;0.32;;;0.32;;
13764;SDS011;6953;48.810;9.204;2023-06-22T01:09:20;0.30;;;0.30;;
13764;SDS011;6953;48.810;9.204;2023-06-22T01:12:08;0.30;;;0.30;;
13764;SDS011;6953;48.810;9.204;2023-06-22T01:14:38;0.30;;;0.30;;
13764;SDS011;6953;48.810;9.204;2023-06-22T01:17:08;0.30;;;0.30;;
13764;SDS011;6953;48.810;9.204;2023-06-22T01:22:20;0.30;;;0.30;;
13764;SDS011;6953;48.810;9.204;2023-06-22T01:30:19;0.30;;;0.30;;
13764;SDS011;6953;48.810;9.204;2023-06-22T01:32:45;0.30;;;0.30;;
13764;SDS011;6953;48.810;9.204;2023-06-22T01:35:12;0.30;;;0.30;;
13764;SDS011;6953;48.810;9.204;2023-06-22T01:37:39;0.20;;;0.20;;
13764;SDS011;6953;48.810;9.204;2023-06-22T01:40:04;0.20;;;0.20;;
13764;SDS011;6953;48.810;9.204;2023-06-22T01:42:32;0.30;;;0.30;;
13764;SDS011;6953;48.810;9.204;2023-06-22T01:44:57;0.30;;;0.30;;
13764;SDS011;6953;48.810;9.204;2023-06-22T01:47:24;0.30;;;0.30;;
13764;SDS011;6953;48.810;9.204;2023-06-22T01:49:50;0.30;;;0.30;;
13764;SDS011;6953;48.810;9.204;2023-06-22T01:52:19;0.30;;;0.30;;
13764;SDS011;6953;48.810;9.204;2023-06-22T01:54:46;0.30;;;0.30;;
13764;SDS011;6953;48.810;9.204;2023-06-22T01:57:12;0.30;;;0.30;;
13764;SDS011;6953;48.810;9.204;2023-06-22T01:59:39;0.20;;;0.20;;
13764;SDS011;6953;48.810;9.204;2023-06-22T02:02:13;0.20;;;0.20;;
13764;SDS011;6953;48.810;9.204;2023-06-22T02:04:50;0.20;;;0.20;;
13764;SDS011;6953;48.810;9.204;2023-06-22T02:07:19;0.20;;;0.20;;
13764;SDS011;6953;48.810;9.204;2023-06-22T02:09:48;0.20;;;0.20;;
13764;SDS011;6953;48.810;9.204;2023-06-22T02:12:18;0.10;;;0.10;;
13764;SDS011;6953;48.810;9.204;2023-06-22T02:14:48;0.20;;;0.20;;
13764;SDS011;6953;48.810;9.204;2023-06-22T02:17:13;0.20;;;0.20;;
13764;SDS011;6953;48.810;9.204;2023-06-22T02:19:42;0.10;;;0.10;;
13764;SDS011;6953;48.810;9.204;2023-06-22T02:22:07;0.10;;;0.10;;
13764;SDS011;6953;48.810;9.204;2023-06-22T02:24:32;0.20;;;0.20;;
13764;SDS011;6953;48.810;9.204;2023-06-22T02:26:58;0.20;;;0.20;;
13764;SDS011;6953;48.810;9.204;2023-06-22T02:29:25;0.10;;;0.10;;
13764;SDS011;6953;48.810;9.204;2023-06-22T02:31:51;0.10;;;0.10;;
13764;SDS011;6953;48.810;9.204;2023-06-22T02:34:17;0.20;;;0.20;;
13764;SDS011;6953;48.810;9.204;2023-06-22T02:36:46;0.20;;;0.20;;
13764;SDS011;6953;48.810;9.204;2023-06-22T02:39:23;0.20;;;0.20;;
13764;SDS011;6953;48.810;9.204;2023-06-22T02:41:49;0.20;;;0.20;;
13764;SDS011;6953;48.810;9.204;2023-06-22T02:44:16;0.20;;;0.20;;
13764;SDS011;6953;48.810;9.204;2023-06-22T02:46:41;0.20;;;0.20;;
13764;SDS011;6953;48.810;9.204;2023-06-22T02:49:07;0.10;;;0.10;;
13764;SDS011;6953;48.810;9.204;2023-06-22T02:51:33;0.10;;;0.10;;
13764;SDS011;6953;48.810;9.204;2023-06-22T02:53:59;0.20;;;0.20;;
13764;SDS011;6953;48.810;9.204;2023-06-22T02:56:25;0.10;;;0.10;;
13764;SDS011;6953;48.810;9.204;2023-06-22T02:58:51;0.10;;;0.10;;
13764;SDS011;6953;48.810;9.204;2023-06-22T03:01:16;0.10;;;0.10;;
13764;SDS011;6953;48.810;9.204;2023-06-22T03:03:42;0.20;;;0.20;;
13764;SDS011;6953;48.810;9.204;2023-06-22T03:06:07;0.20;;;0.20;;
13764;SDS011;6953;48.810;9.204;2023-06-22T03:08:32;0.20;;;0.20;;
13764;SDS011;6953;48.810;9.204;2023-06-22T03:10:58;0.20;;;0.20;;
13764;SDS011;6953;48.810;9.204;2023-06-22T03:13:23;0.20;;;0.20;;
13764;SDS011;6953;48.810;9.204;2023-06-22T03:15:49;0.20;;;0.20;;
13764;SDS011;6953;48.810;9.204;2023-06-22T03:18:14;0.30;;;0.30;;
13764;SDS011;6953;48.810;9.204;2023-06-22T03:20:40;0.40;;;0.40;;
13764;SDS011;6953;48.810;9.204;2023-06-22T03:23:06;0.40;;;0.40;;
13764;SDS011;6953;48.810;9.204;2023-06-22T03:25:31;0.40;;;0.40;;
13764;SDS011;6953;48.810;9.204;2023-06-22T03:27:58;0.40;;;0.40;;
13764;SDS011;6953;48.810;9.204;2023-06-22T03:30:23;0.40;;;0.40;;
13764;SDS011;6953;48.810;9.204;2023-06-22T03:32:49;0.40;;;0.40;;
13764;SDS011;6953;48.810;9.204;2023-06-22T03:35:14;0.30;;;0.30;;
13764;SDS011;6953;48.810;9.204;2023-06-22T03:37:39;0.30;;;0.30;;
13764;SDS011;6953;48.810;9.204;2023-06-22T03:40:05;0.30;;;0.30;;
13764;SDS011;6953;48.810;9.204;2023-06-22T03:42:31;0.40;;;0.40;;
13764;SDS011;6953;48.810;9.204;2023-06-22T03:44:56;0.40;;;0.40;;
13764;SDS011;6953;48.810;9.204;2023-06-22T03:47:22;0.40;;;0.40;;
13764;SDS011;6953;48.810;9.204;2023-06-22T03:49:47;0.40;;;0.40;;
13764;SDS011;6953;48.810;9.204;2023-06-22T03:52:12;0.30;;;0.30;;
13764;SDS011;6953;48.810;9.204;2023-06-22T03:54:38;0.30;;;0.30;;
13764;SDS011;6953;48.810;9.204;2023-06-22T03:57:03;0.30;;;0.30;;
13764;SDS011;6953;48.810;9.204;2023-06-22T03:59:29;0.30;;;0.30;;
13764;SDS011;6953;48.810;9.204;2023-06-22T04:01:54;0.40;;;0.40;;
13764;SDS011;6953;48.810;9.204;2023-06-22T04:04:19;0.40;;;0.40;;
13764;SDS011;6953;48.810;9.204;2023-06-22T04:06:45;0.22;;;0.22;;
13764;SDS011;6953;48.810;9.204;2023-06-22T04:09:10;0.30;;;0.30;;
13764;SDS011;6953;48.810;9.204;2023-06-22T04:11:35;0.40;;;0.40;;
13764;SDS011;6953;48.810;9.204;2023-06-22T04:14:01;0.30;;;0.30;;
13764;SDS011;6953;48.810;9.204;2023-06-22T04:16:26;0.30;;;0.30;;
13764;SDS011;6953;48.810;9.204;2023-06-22T04:18:52;0.32;;;0.32;;
13764;SDS011;6953;48.810;9.204;2023-06-22T04:21:17;0.30;;;0.30;;
13764;SDS011;6953;48.810;9.204;2023-06-22T04:23:44;0.30;;;0.30;;
13764;SDS011;6953;48.810;9.204;2023-06-22T04:26:11;0.32;;;0.32;;
13764;SDS011;6953;48.810;9.204;2023-06-22T04:28:36;0.30;;;0.30;;
13764;SDS011;6953;48.810;9.204;2023-06-22T04:31:02;0.30;;;0.30;;
13764;SDS011;6953;48.810;9.204;2023-06-22T04:33:28;0.30;;;0.30;;
13764;SDS011;6953;48.810;9.204;2023-06-22T04:35:57;0.30;;;0.30;;
13764;SDS011;6953;48.810;9.204;2023-06-22T04:38:23;0.30;;;0.30;;
13764;SDS011;6953;48.810;9.204;2023-06-22T04:40:49;0.30;;;0.30;;
13764;SDS011;6953;48.810;9.204;2023-06-22T04:43:15;0.30;;;0.30;;
13764;SDS011;6953;48.810;9.204;2023-06-22T04:45:40;0.28;;;0.28;;
13764;SDS011;6953;48.810;9.204;2023-06-22T04:48:05;0.30;;;0.30;;
13764;SDS011;6953;48.810;9.204;2023-06-22T04:50:31;0.30;;;0.30;;
13764;SDS011;6953;48.810;9.204;2023-06-22T04:52:56;0.30;;;0.30;;
13764;SDS011;6953;48.810;9.204;2023-06-22T04:55:23;0.30;;;0.30;;
13764;SDS011;6953;48.810;9.204;2023-06-22T04:57:50;0.25;;;0.25;;
13764;SDS011;6953;48.810;9.204;2023-06-22T05:00:16;0.22;;;0.22;;
13764;SDS011;6953;48.810;9.204;2023-06-22T05:02:47;0.30;;;0.30;;
13764;SDS011;6953;48.810;9.204;2023-06-22T05:05:12;0.30;;;0.30;;
13764;SDS011;6953;48.810;9.204;2023-06-22T05:07:49;0.30;;;0.30;;
13764;SDS011;6953;48.810;9.204;2023-06-22T05:10:18;0.20;;;0.20;;
13764;SDS011;6953;48.810;9.204;2023-06-22T05:12:44;0.20;;;0.20;;
13764;SDS011;6953;48.810;9.204;2023-06-22T05:15:10;0.30;;;0.30;;
13764;SDS011;6953;48.810;9.204;2023-06-22T05:17:36;0.20;;;0.20;;
13764;SDS011;6953;48.810;9.204;2023-06-22T05:20:06;0.20;;;0.20;;
13764;SDS011;6953;48.810;9.204;2023-06-22T05:22:32;0.20;;;0.20;;
13764;SDS011;6953;48.810;9.204;2023-06-22T05:24:57;0.20;;;0.20;;
13764;SDS011;6953;48.810;9.204;2023-06-22T05:27:22;0.20;;;0.20;;
13764;SDS011;6953;48.810;9.204;2023-06-22T05:29:48;0.20;;;0.20;;
13764;SDS011;6953;48.810;9.204;2023-06-22T05:32:13;0.20;;;0.20;;
13764;SDS011;6953;48.810;9.204;2023-06-22T05:34:38;0.20;;;0.20;;
13764;SDS011;6953;48.810;9.204;2023-06-22T05:37:04;0.20;;;0.20;;
13764;SDS011;6953;48.810;9.204;2023-06-22T05:39:29;0.20;;;0.20;;
13764;SDS011;6953;48.810;9.204;2023-06-22T05:41:54;0.20;;;0.20;;
13764;SDS011;6953;48.810;9.204;2023-06-22T05:44:20;0.20;;;0.20;;
13764;SDS011;6953;48.810;9.204;2023-06-22T05:46:45;0.20;;;0.20;;
13764;SDS011;6953;48.810;9.204;2023-06-22T05:49:12;0.20;;;0.20;;
13764;SDS011;6953;48.810;9.204;2023-06-22T05:51:38;0.20;;;0.20;;
13764;SDS011;6953;48.810;9.204;2023-06-22T05:54:04;0.20;;;0.20;;
13764;SDS011;6953;48.810;9.204;2023-06-22T05:56:29;0.20;;;0.20;;
13764;SDS011;6953;48.810;9.204;2023-06-22T05:58:55;0.20;;;0.20;;
13764;SDS011;6953;48.810;9.204;2023-06-22T06:01:20;0.20;;;0.20;;
13764;SDS011;6953;48.810;9.204;2023-06-22T06:03:46;0.20;;;0.20;;
13764;SDS011;6953;48.810;9.204;2023-06-22T06:06:11;0.20;;;0.20;;
13764;SDS011;6953;48.810;9.204;2023-06-22T06:08:37;0.20;;;0.20;;
13764;SDS011;6953;48.810;9.204;2023-06-22T06:11:03;0.20;;;0.20;;
13764;SDS011;6953;48.810;9.204;2023-06-22T06:13:29;0.20;;;0.20;;
13764;SDS011;6953;48.810;9.204;2023-06-22T06:15:54;0.30;;;0.30;;
13764;SDS011;6953;48.810;9.204;2023-06-22T06:18:21;0.20;;;0.20;;
13764;SDS011;6953;48.810;9.204;2023-06-22T06:20:46;0.20;;;0.20;;
13764;SDS011;6953;48.810;9.204;2023-06-22T06:23:12;0.20;;;0.20;;
13764;SDS011;6953;48.810;9.204;2023-06-22T06:25:37;0.20;;;0.20;;
13764;SDS011;6953;48.810;9.204;2023-06-22T06:28:02;0.20;;;0.20;;
13764;SDS011;6953;48.810;9.204;2023-06-22T06:30:28;0.20;;;0.20;;
13764;SDS011;6953;48.810;9.204;2023-06-22T06:32:53;0.20;;;0.20;;
13764;SDS011;6953;48.810;9.204;2023-06-22T06:35:19;0.20;;;0.20;;
13764;SDS011;6953;48.810;9.204;2023-06-22T06:37:45;0.10;;;0.10;;
13764;SDS011;6953;48.810;9.204;2023-06-22T06:40:13;0.10;;;0.10;;
13764;SDS011;6953;48.810;9.204;2023-06-22T06:42:40;0.20;;;0.20;;
13764;SDS011;6953;48.810;9.204;2023-06-22T06:45:16;0.20;;;0.20;;
13764;SDS011;6953;48.810;9.204;2023-06-22T06:47:43;0.10;;;0.10;;
13764;SDS011;6953;48.810;9.204;2023-06-22T06:50:09;0.20;;;0.20;;
13764;SDS011;6953;48.810;9.204;2023-06-22T06:52:35;0.10;;;0.10;;
13764;SDS011;6953;48.810;9.204;2023-06-22T06:55:01;0.20;;;0.20;;
13764;SDS011;6953;48.810;9.204;2023-06-22T06:57:27;0.10;;;0.10;;
13764;SDS011;6953;48.810;9.204;2023-06-22T06:59:53;0.10;;;0.10;;
13764;SDS011;6953;48.810;9.204;2023-06-22T07:02:20;0.10;;;0.10;;
13764;SDS011;6953;48.810;9.204;2023-06-22T07:04:46;0.10;;;0.10;;
13764;SDS011;6953;48.810;9.204;2023-06-22T07:07:11;0.10;;;0.10;;
13764;SDS011;6953;48.810;9.204;2023-06-22T07:09:37;0.10;;;0.10;;
13764;SDS011;6953;48.810;9.204;2023-06-22T07:12:02;0.10;;;0.10;;
13764;SDS011;6953;48.810;9.204;2023-06-22T07:14:28;0.10;;;0.10;;
13764;SDS011;6953;48.810;9.204;2023-06-22T07:16:53;0.10;;;0.10;;
13764;SDS011;6953;48.810;9.204;2023-06-22T07:19:24;0.10;;;0.10;;
13764;SDS011;6953;48.810;9.204;2023-06-22T07:21:50;0.10;;;0.10;;
13764;SDS011;6953;48.810;9.204;2023-06-22T07:24:15;0.10;;;0.10;;
13764;SDS011;6953;48.810;9.204;2023-06-22T07:26:41;0.10;;;0.10;;
13764;SDS011;6953;48.810;9.204;2023-06-22T07:29:10;0.10;;;0.10;;
13764;SDS011;6953;48.810;9.204;2023-06-22T07:31:35;0.10;;;0.10;;
13764;SDS011;6953;48.810;9.204;2023-06-22T07:34:01;0.10;;;0.10;;
13764;SDS011;6953;48.810;9.204;2023-06-22T07:36:27;0.13;;;0.13;;
13764;SDS011;6953;48.810;9.204;2023-06-22T07:38:55;0.10;;;0.10;;
13764;SDS011;6953;48.810;9.204;2023-06-22T07:41:20;0.15;;;0.15;;
13764;SDS011;6953;48.810;9.204;2023-06-22T07:43:45;0.10;;;0.10;;
13764;SDS011;6953;48.810;9.204;2023-06-22T07:46:11;0.10;;;0.10;;
13764;SDS011;6953;48.810;9.204;2023-06-22T07:48:37;0.10;;;0.10;;
13764;SDS011;6953;48.810;9.204;2023-06-22T07:51:03;0.10;;;0.10;;
13764;SDS011;6953;48.810;9.204;2023-06-22T07:53:28;0.10;;;0.10;;
13764;SDS011;6953;48.810;9.204;2023-06-22T07:55:53;0.10;;;0.10;;
13764;SDS011;6953;48.810;9.204;2023-06-22T07:58:19;0.10;;;0.10;;
13764;SDS011;6953;48.810;9.204;2023-06-22T08:00:45;0.10;;;0.10;;
13764;SDS011;6953;48.810;9.204;2023-06-22T08:03:13;0.10;;;0.10;;
13764;SDS011;6953;48.810;9.204;2023-06-22T08:05:38;0.10;;;0.10;;
13764;SDS011;6953;48.810;9.204;2023-06-22T08:08:03;0.10;;;0.10;;
13764;SDS011;6953;48.810;9.204;2023-06-22T08:10:29;0.10;;;0.10;;
13764;SDS011;6953;48.810;9.204;2023-06-22T08:12:54;0.00;;;0.00;;
13764;SDS011;6953;48.810;9.204;2023-06-22T08:15:20;0.10;;;0.10;;
13764;SDS011;6953;48.810;9.204;2023-06-22T08:17:46;0.10;;;0.10;;
13764;SDS011;6953;48.810;9.204;2023-06-22T08:20:12;0.10;;;0.10;;
13764;SDS011;6953;48.810;9.204;2023-06-22T08:22:38;0.10;;;0.10;;
13764;SDS011;6953;48.810;9.204;2023-06-22T08:25:03;0.10;;;0.10;;
13764;SDS011;6953;48.810;9.204;2023-06-22T08:27:30;0.10;;;0.10;;
13764;SDS011;6953;48.810;9.204;2023-06-22T08:29:59;0.10;;;0.10;;
13764;SDS011;6953;48.810;9.204;2023-06-22T08:32:28;0.10;;;0.10;;
13764;SDS011;6953;48.810;9.204;2023-06-22T08:34:55;0.10;;;0.10;;
13764;SDS011;6953;48.810;9.204;2023-06-22T08:37:22;0.10;;;0.10;;
13764;SDS011;6953;48.810;9.204;2023-06-22T08:39:55;0.10;;;0.10;;
13764;SDS011;6953;48.810;9.204;2023-06-22T08:42:21;0.20;;;0.20;;
13764;SDS011;6953;48.810;9.204;2023-06-22T08:44:46;0.10;;;0.10;;
13764;SDS011;6953;48.810;9.204;2023-06-22T08:47:11;0.20;;;0.20;;
13764;SDS011;6953;48.810;9.204;2023-06-22T08:49:36;0.10;;;0.10;;
13764;SDS011;6953;48.810;9.204;2023-06-22T08:52:02;0.10;;;0.10;;
13764;SDS011;6953;48.810;9.204;2023-06-22T08:54:27;0.10;;;0.10;;
13764;SDS011;6953;48.810;9.204;2023-06-22T09:00:15;0.20;;;0.20;;
13764;SDS011;6953;48.810;9.204;2023-06-22T09:02:42;0.10;;;0.10;;
13764;SDS011;6953;48.810;9.204;2023-06-22T09:05:08;0.10;;;0.10;;
13764;SDS011;6953;48.810;9.204;2023-06-22T09:07:34;0.10;;;0.10;;
13764;SDS011;6953;48.810;9.204;2023-06-22T09:09:59;0.20;;;0.20;;
13764;SDS011;6953;48.810;9.204;2023-06-22T09:12:25;0.20;;;0.20;;
13764;SDS011;6953;48.810;9.204;2023-06-22T09:14:50;0.15;;;0.15;;
13764;SDS011;6953;48.810;9.204;2023-06-22T09:17:16;0.10;;;0.10;;
13764;SDS011;6953;48.810;9.204;2023-06-22T09:19:41;0.15;;;0.15;;
13764;SDS011;6953;48.810;9.204;2023-06-22T09:22:06;0.20;;;0.20;;
13764;SDS011;6953;48.810;9.204;2023-06-22T09:24:32;0.10;;;0.10;;
13764;SDS011;6953;48.810;9.204;2023-06-22T09:26:58;0.10;;;0.10;;
13764;SDS011;6953;48.810;9.204;2023-06-22T09:29:23;0.10;;;0.10;;
13764;SDS011;6953;48.810;9.204;2023-06-22T09:31:48;0.10;;;0.10;;
13764;SDS011;6953;48.810;9.204;2023-06-22T09:34:14;0.10;;;0.10;;
13764;SDS011;6953;48.810;9.204;2023-06-22T09:36:40;0.10;;;0.10;;
13764;SDS011;6953;48.810;9.204;2023-06-22T09:39:06;0.10;;;0.10;;
13764;SDS011;6953;48.810;9.204;2023-06-22T09:41:31;0.10;;;0.10;;
13764;SDS011;6953;48.810;9.204;2023-06-22T09:43:57;0.10;;;0.10;;
13764;SDS011;6953;48.810;9.204;2023-06-22T09:46:22;0.10;;;0.10;;
13764;SDS011;6953;48.810;9.204;2023-06-22T09:48:50;0.10;;;0.10;;
13764;SDS011;6953;48.810;9.204;2023-06-22T09:51:15;0.10;;;0.10;;
13764;SDS011;6953;48.810;9.204;2023-06-22T09:53:40;0.00;;;0.00;;
13764;SDS011;6953;48.810;9.204;2023-06-22T09:56:06;0.00;;;0.00;;
13764;SDS011;6953;48.810;9.204;2023-06-22T09:58:31;0.00;;;0.00;;
13764;SDS011;6953;48.810;9.204;2023-06-22T10:00:56;0.00;;;0.00;;
13764;SDS011;6953;48.810;9.204;2023-06-22T10:03:22;0.00;;;0.00;;
13764;SDS011;6953;48.810;9.204;2023-06-22T10:05:47;0.00;;;0.00;;
13764;SDS011;6953;48.810;9.204;2023-06-22T10:08:13;0.00;;;0.00;;
13764;SDS011;6953;48.810;9.204;2023-06-22T10:10:38;0.00;;;0.00;;
13764;SDS011;6953;48.810;9.204;2023-06-22T10:13:10;0.00;;;0.00;;
13764;SDS011;6953;48.810;9.204;2023-06-22T10:15:36;0.00;;;0.00;;
13764;SDS011;6953;48.810;9.204;2023-06-22T10:18:02;0.00;;;0.00;;
13764;SDS011;6953;48.810;9.204;2023-06-22T10:20:27;0.00;;;0.00;;
13764;SDS011;6953;48.810;9.204;2023-06-22T10:22:53;0.00;;;0.00;;
13764;SDS011;6953;48.810;9.204;2023-06-22T10:25:18;0.00;;;0.00;;
13764;SDS011;6953;48.810;9.204;2023-06-22T10:27:44;0.00;;;0.00;;
13764;SDS011;6953;48.810;9.204;2023-06-22T10:30:10;0.00;;;0.00;;
13764;SDS011;6953;48.810;9.204;2023-06-22T10:32:40;0.00;;;0.00;;
13764;SDS011;6953;48.810;9.204;2023-06-22T10:35:07;0.00;;;0.00;;
13764;SDS011;6953;48.810;9.204;2023-06-22T10:37:35;0.00;;;0.00;;
13764;SDS011;6953;48.810;9.204;2023-06-22T10:40:01;0.00;;;0.00;;
13764;SDS011;6953;48.810;9.204;2023-06-22T10:42:27;0.00;;;0.00;;
13764;SDS011;6953;48.810;9.204;2023-06-22T10:44:53;0.00;;;0.00;;
13764;SDS011;6953;48.810;9.204;2023-06-22T10:47:18;0.00;;;0.00;;
13764;SDS011;6953;48.810;9.204;2023-06-22T10:49:43;0.00;;;0.00;;
13764;SDS011;6953;48.810;9.204;2023-06-22T10:52:09;0.00;;;0.00;;
13764;SDS011;6953;48.810;9.204;2023-06-22T10:54:34;0.00;;;0.00;;
13764;SDS011;6953;48.810;9.204;2023-06-22T10:57:01;0.00;;;0.00;;
13764;SDS011;6953;48.810;9.204;2023-06-22T10:59:27;0.00;;;0.00;;
13764;SDS011;6953;48.810;9.204;2023-06-22T11:01:53;0.00;;;0.00;;
13764;SDS011;6953;48.810;9.204;2023-06-22T11:04:18;0.00;;;0.00;;
13764;SDS011;6953;48.810;9.204;2023-06-22T11:06:44;0.00;;;0.00;;
13764;SDS011;6953;48.810;9.204;2023-06-22T11:09:09;0.00;;;0.00;;
13764;SDS011;6953;48.810;9.204;2023-06-22T11:11:34;0.00;;;0.00;;
13764;SDS011;6953;48.810;9.204;2023-06-22T11:14:00;0.00;;;0.00;;
13764;SDS011;6953;48.810;9.204;2023-06-22T11:16:25;0.00;;;0.00;;
13764;SDS011;6953;48.810;9.204;2023-06-22T11:18:50;0.00;;;0.00;;
13764;SDS011;6953;48.810;9.204;2023-06-22T11:21:15;0.00;;;0.00;;
13764;SDS011;6953;48.810;9.204;2023-06-22T11:23:41;0.00;;;0.00;;
13764;SDS011;6953;48.810;9.204;2023-06-22T11:26:07;0.00;;;0.00;;
13764;SDS011;6953;48.810;9.204;2023-06-22T11:28:32;0.00;;;0.00;;
13764;SDS011;6953;48.810;9.204;2023-06-22T11:30:58;0.00;;;0.00;;
13764;SDS011;6953;48.810;9.204;2023-06-22T11:33:23;0.00;;;0.00;;
13764;SDS011;6953;48.810;9.204;2023-06-22T11:35:49;0.00;;;0.00;;
13764;SDS011;6953;48.810;9.204;2023-06-22T11:38:14;0.00;;;0.00;;
13764;SDS011;6953;48.810;9.204;2023-06-22T11:40:39;0.00;;;0.00;;
13764;SDS011;6953;48.810;9.204;2023-06-22T11:43:05;0.00;;;0.00;;
13764;SDS011;6953;48.810;9.204;2023-06-22T11:45:30;0.00;;;0.00;;
13764;SDS011;6953;48.810;9.204;2023-06-22T11:47:55;0.00;;;0.00;;
13764;SDS011;6953;48.810;9.204;2023-06-22T11:50:21;0.00;;;0.00;;
13764;SDS011;6953;48.810;9.204;2023-06-22T11:52:46;0.00;;;0.00;;
13764;SDS011;6953;48.810;9.204;2023-06-22T11:55:12;0.00;;;0.00;;
13764;SDS011;6953;48.810;9.204;2023-06-22T11:57:37;0.00;;;0.00;;
13764;SDS011;6953;48.810;9.204;2023-06-22T12:00:16;0.00;;;0.00;;
13764;SDS011;6953;48.810;9.204;2023-06-22T12:02:43;0.00;;;0.00;;
13764;SDS011;6953;48.810;9.204;2023-06-22T12:05:11;0.00;;;0.00;;
13764;SDS011;6953;48.810;9.204;2023-06-22T12:07:36;0.00;;;0.00;;
13764;SDS011;6953;48.810;9.204;2023-06-22T12:10:02;0.00;;;0.00;;
13764;SDS011;6953;48.810;9.204;2023-06-22T12:12:28;0.00;;;0.00;;
13764;SDS011;6953;48.810;9.204;2023-06-22T12:14:53;0.00;;;0.00;;
13764;SDS011;6953;48.810;9.204;2023-06-22T12:17:18;0.00;;;0.00;;
13764;SDS011;6953;48.810;9.204;2023-06-22T12:19:43;0.00;;;0.00;;
13764;SDS011;6953;48.810;9.204;2023-06-22T12:22:09;0.00;;;0.00;;
13764;SDS011;6953;48.810;9.204;2023-06-22T12:24:34;0.00;;;0.00;;
13764;SDS011;6953;48.810;9.204;2023-06-22T12:26:59;0.00;;;0.00;;
13764;SDS011;6953;48.810;9.204;2023-06-22T12:29:25;0.00;;;0.00;;
13764;SDS011;6953;48.810;9.204;2023-06-22T12:31:50;0.00;;;0.00;;
13764;SDS011;6953;48.810;9.204;2023-06-22T12:34:15;0.00;;;0.00;;
13764;SDS011;6953;48.810;9.204;2023-06-22T12:36:40;0.08;;;0.08;;
13764;SDS011;6953;48.810;9.204;2023-06-22T12:39:06;0.00;;;0.00;;
13764;SDS011;6953;48.810;9.204;2023-06-22T12:41:31;0.00;;;0.00;;
13764;SDS011;6953;48.810;9.204;2023-06-22T12:43:56;0.00;;;0.00;;
13764;SDS011;6953;48.810;9.204;2023-06-22T12:46:22;0.00;;;0.00;;
13764;SDS011;6953;48.810;9.204;2023-06-22T12:48:47;0.00;;;0.00;;
13764;SDS011;6953;48.810;9.204;2023-06-22T12:51:12;0.00;;;0.00;;
13764;SDS011;6953;48.810;9.204;2023-06-22T12:53:45;0.00;;;0.00;;
13764;SDS011;6953;48.810;9.204;2023-06-22T12:56:10;0.00;;;0.00;;
13764;SDS011;6953;48.810;9.204;2023-06-22T12:58:36;0.00;;;0.00;;
13764;SDS011;6953;48.810;9.204;2023-06-22T13:01:02;0.00;;;0.00;;
13764;SDS011;6953;48.810;9.204;2023-06-22T13:03:27;0.00;;;0.00;;
13764;SDS011;6953;48.810;9.204;2023-06-22T13:05:53;0.00;;;0.00;;
13764;SDS011;6953;48.810;9.204;2023-06-22T13:08:18;0.00;;;0.00;;
13764;SDS011;6953;48.810;9.204;2023-06-22T13:10:44;0.00;;;0.00;;
13764;SDS011;6953;48.810;9.204;2023-06-22T13:13:09;0.00;;;0.00;;
13764;SDS011;6953;48.810;9.204;2023-06-22T13:15:34;0.00;;;0.00;;
13764;SDS011;6953;48.810;9.204;2023-06-22T13:18:00;0.00;;;0.00;;
13764;SDS011;6953;48.810;9.204;2023-06-22T13:20:25;0.00;;;0.00;;
13764;SDS011;6953;48.810;9.204;2023-06-22T13:22:53;0.00;;;0.00;;
13764;SDS011;6953;48.810;9.204;2023-06-22T13:25:20;0.00;;;0.00;;
13764;SDS011;6953;48.810;9.204;2023-06-22T13:27:48;0.00;;;0.00;;
13764;SDS011;6953;48.810;9.204;2023-06-22T13:30:14;0.00;;;0.00;;
13764;SDS011;6953;48.810;9.204;2023-06-22T13:32:40;0.00;;;0.00;;
13764;SDS011;6953;48.810;9.204;2023-06-22T13:35:09;0.00;;;0.00;;
13764;SDS011;6953;48.810;9.204;2023-06-22T13:37:35;0.00;;;0.00;;
13764;SDS011;6953;48.810;9.204;2023-06-22T13:40:00;0.00;;;0.00;;
13764;SDS011;6953;48.810;9.204;2023-06-22T13:42:28;0.00;;;0.00;;
13764;SDS011;6953;48.810;9.204;2023-06-22T13:44:53;0.00;;;0.00;;
13764;SDS011;6953;48.810;9.204;2023-06-22T13:47:18;0.00;;;0.00;;
13764;SDS011;6953;48.810;9.204;2023-06-22T13:49:44;0.00;;;0.00;;
13764;SDS011;6953;48.810;9.204;2023-06-22T13:52:09;0.00;;;0.00;;
13764;SDS011;6953;48.810;9.204;2023-06-22T13:54:36;0.00;;;0.00;;
13764;SDS011;6953;48.810;9.204;2023-06-22T13:57:01;0.00;;;0.00;;
13764;SDS011;6953;48.810;9.204;2023-06-22T13:59:27;0.00;;;0.00;;
13764;SDS011;6953;48.810;9.204;2023-06-22T14:01:53;0.00;;;0.00;;
13764;SDS011;6953;48.810;9.204;2023-06-22T14:04:18;0.00;;;0.00;;
13764;SDS011;6953;48.810;9.204;2023-06-22T14:06:44;0.00;;;0.00;;
13764;SDS011;6953;48.810;9.204;2023-06-22T14:09:09;0.00;;;0.00;;
13764;SDS011;6953;48.810;9.204;2023-06-22T14:11:34;0.00;;;0.00;;
13764;SDS011;6953;48.810;9.204;2023-06-22T14:14:00;0.00;;;0.00;;
13764;SDS011;6953;48.810;9.204;2023-06-22T14:16:25;0.00;;;0.00;;
13764;SDS011;6953;48.810;9.204;2023-06-22T14:18:50;0.00;;;0.00;;
13764;SDS011;6953;48.810;9.204;2023-06-22T14:21:16;0.00;;;0.00;;
13764;SDS011;6953;48.810;9.204;2023-06-22T14:23:41;0.00;;;0.00;;
13764;SDS011;6953;48.810;9.204;2023-06-22T14:26:06;0.00;;;0.00;;
13764;SDS011;6953;48.810;9.204;2023-06-22T14:28:32;0.00;;;0.00;;
13764;SDS011;6953;48.810;9.204;2023-06-22T14:30:57;0.00;;;0.00;;
13764;SDS011;6953;48.810;9.204;2023-06-22T14:33:23;0.00;;;0.00;;
13764;SDS011;6953;48.810;9.204;2023-06-22T14:35:48;0.00;;;0.00;;
13764;SDS011;6953;48.810;9.204;2023-06-22T14:38:14;0.00;;;0.00;;
13764;SDS011;6953;48.810;9.204;2023-06-22T14:40:39;0.00;;;0.00;;
13764;SDS011;6953;48.810;9.204;2023-06-22T14:43:04;0.00;;;0.00;;
13764;SDS011;6953;48.810;9.204;2023-06-22T14:45:30;0.00;;;0.00;;
13764;SDS011;6953;48.810;9.204;2023-06-22T14:47:55;0.00;;;0.00;;
13764;SDS011;6953;48.810;9.204;2023-06-22T14:50:20;0.00;;;0.00;;
13764;SDS011;6953;48.810;9.204;2023-06-22T14:52:45;0.00;;;0.00;;
13764;SDS011;6953;48.810;9.204;2023-06-22T14:55:11;0.00;;;0.00;;
13764;SDS011;6953;48.810;9.204;2023-06-22T14:57:36;0.00;;;0.00;;
13764;SDS011;6953;48.810;9.204;2023-06-22T15:00:02;0.00;;;0.00;;
13764;SDS011;6953;48.810;9.204;2023-06-22T15:02:28;0.00;;;0.00;;
13764;SDS011;6953;48.810;9.204;2023-06-22T15:04:53;0.00;;;0.00;;